Time;durP1;ratioP1;P1;durP2;ratioP2;P2;SDS_P1;SDS_P2;PMS_P1;PMS_P2;Temp;Humidity;BMP_temperature;BMP_pressure;BME280_temperature;BME280_humidity;BME280_pressure;Samples;Min_cycle;Max_cycle;Signal;HPM_P1;HPM_P2
2021/03/06 00:00:56;;;;;;;12.90;7.60;;;-0.40;99.80;;;;;;6218041;23;20205;-85
2021/03/06 00:03:27;;;;;;;16.48;8.60;;;-0.40;99.80;;;;;;6178120;23;20209;-84
2021/03/06 00:05:54;;;;;;;13.93;7.88;;;-0.50;99.80;;;;;;6181832;23;20198;-85
2021/03/06 00:08:24;;;;;;;11.05;6.65;;;-0.50;99.80;;;;;;6203463;22;20204;-85
2021/03/06 00:10:53;;;;;;;12.80;6.90;;;-0.50;99.80;;;;;;6191638;23;20545;-85
2021/03/06 00:13:21;;;;;;;11.15;6.15;;;-0.50;99.80;;;;;;6181724;23;20213;-86
2021/03/06 00:15:48;;;;;;;12.40;6.75;;;-0.50;99.80;;;;;;6207293;23;20207;-85
2021/03/06 00:18:15;;;;;;;12.80;7.30;;;-0.60;99.80;;;;;;6206909;23;20212;-85
2021/03/06 00:20:43;;;;;;;12.15;8.18;;;-0.60;99.80;;;;;;6203747;23;20232;-85
2021/03/06 00:23:10;;;;;;;10.95;7.53;;;-0.60;99.80;;;;;;6186596;23;20252;-85
2021/03/06 00:25:37;;;;;;;18.10;9.20;;;-0.60;99.80;;;;;;6179274;23;20713;-85
2021/03/06 00:28:04;;;;;;;11.10;7.32;;;-0.60;99.80;;;;;;6169756;23;20198;-85
2021/03/06 00:30:32;;;;;;;15.30;8.23;;;-0.50;99.80;;;;;;6200723;23;20208;-85
2021/03/06 00:33:00;;;;;;;13.20;7.28;;;-0.50;99.80;;;;;;6199795;23;20202;-85
2021/03/06 00:35:28;;;;;;;12.00;8.15;;;-0.60;99.80;;;;;;6186280;23;20201;-85
2021/03/06 00:37:56;;;;;;;17.65;9.35;;;-0.60;99.80;;;;;;6185329;23;20602;-85
2021/03/06 00:40:23;;;;;;;13.18;8.70;;;-0.60;99.80;;;;;;6203152;23;20216;-85
2021/03/06 00:42:50;;;;;;;17.98;10.40;;;-0.60;99.80;;;;;;6114883;23;20761;-85
2021/03/06 00:45:17;;;;;;;16.13;8.82;;;-0.60;99.80;;;;;;6147949;23;20208;-88
2021/03/06 00:47:44;;;;;;;15.02;8.00;;;-0.70;99.80;;;;;;6175630;23;20215;-87
2021/03/06 00:50:13;;;;;;;16.20;9.77;;;-0.70;99.80;;;;;;6174794;23;20574;-87
2021/03/06 00:52:40;;;;;;;10.85;7.80;;;-0.80;99.80;;;;;;6173748;23;20205;-87
2021/03/06 00:55:09;;;;;;;14.95;8.27;;;-0.90;99.80;;;;;;6158200;23;20771;-87
2021/03/06 00:57:36;;;;;;;14.43;7.85;;;-0.90;99.80;;;;;;6154421;23;20206;-87
2021/03/06 01:00:05;;;;;;;11.18;8.18;;;-0.90;99.80;;;;;;6174892;23;20272;-87
2021/03/06 01:02:31;;;;;;;16.05;7.78;;;-0.90;99.80;;;;;;6183236;23;20205;-88
2021/03/06 01:04:59;;;;;;;18.77;7.22;;;-0.90;99.80;;;;;;6167325;23;20651;-87
2021/03/06 01:07:26;;;;;;;10.57;6.80;;;-0.90;99.80;;;;;;6141268;23;20213;-87
2021/03/06 01:09:53;;;;;;;15.20;7.07;;;-0.90;99.80;;;;;;6155849;23;20229;-88
2021/03/06 01:12:21;;;;;;;13.52;7.35;;;-0.90;99.80;;;;;;6163533;23;20206;-88
2021/03/06 01:14:48;;;;;;;12.70;6.32;;;-0.90;99.80;;;;;;6155359;23;20230;-87
2021/03/06 01:17:15;;;;;;;9.23;6.30;;;-0.90;99.80;;;;;;6142451;23;20240;-87
2021/03/06 01:19:42;;;;;;;10.60;6.65;;;-0.90;99.80;;;;;;6162060;23;20560;-87
2021/03/06 01:22:09;;;;;;;10.25;6.07;;;-0.90;99.80;;;;;;6173651;23;20213;-87
2021/03/06 01:24:37;;;;;;;8.43;5.80;;;-0.90;99.80;;;;;;6151227;23;20276;-87
2021/03/06 01:27:04;;;;;;;10.15;5.97;;;-0.90;99.80;;;;;;6158969;23;20205;-87
2021/03/06 01:29:32;;;;;;;8.75;6.25;;;-1.00;99.80;;;;;;6153836;23;20201;-87
2021/03/06 01:31:59;;;;;;;8.98;6.25;;;-1.00;99.80;;;;;;6191018;23;20208;-87
2021/03/06 01:34:26;;;;;;;9.27;5.70;;;-1.00;99.80;;;;;;6177173;23;20317;-87
2021/03/06 01:36:53;;;;;;;10.63;6.90;;;-1.00;99.80;;;;;;6162916;23;20217;-87
2021/03/06 01:39:21;;;;;;;8.93;5.53;;;-1.00;99.80;;;;;;6146860;23;20282;-87
2021/03/06 01:41:48;;;;;;;14.52;6.53;;;-1.00;99.80;;;;;;6173838;23;20542;-87
2021/03/06 01:44:15;;;;;;;11.32;6.40;;;-1.00;99.80;;;;;;6138429;23;20935;-87
2021/03/06 01:46:43;;;;;;;9.35;5.10;;;-1.00;99.80;;;;;;6166306;23;20280;-88
2021/03/06 01:49:10;;;;;;;7.40;5.10;;;-1.00;99.80;;;;;;6159888;23;20204;-87
2021/03/06 01:51:38;;;;;;;8.60;5.00;;;-1.10;99.80;;;;;;6144494;23;20209;-87
2021/03/06 01:54:06;;;;;;;13.48;5.93;;;-1.10;99.80;;;;;;6137634;23;20208;-87
2021/03/06 01:56:33;;;;;;;10.32;6.55;;;-1.00;99.80;;;;;;6167902;23;20680;-87
2021/03/06 01:59:01;;;;;;;8.93;6.30;;;-0.90;99.80;;;;;;6178497;23;20213;-87
2021/03/06 02:01:28;;;;;;;6.72;5.25;;;-0.80;99.80;;;;;;6207745;22;20213;-87
2021/03/06 02:03:57;;;;;;;8.10;5.53;;;-0.70;99.80;;;;;;6204395;23;20204;-87
2021/03/06 02:06:25;;;;;;;8.95;5.80;;;-0.70;99.80;;;;;;6204343;23;20599;-87
2021/03/06 02:08:53;;;;;;;8.23;6.03;;;-0.80;99.80;;;;;;6184788;23;20673;-88
2021/03/06 02:11:31;;;;;;;10.77;5.15;;;-0.80;99.80;;;;;;6158152;23;20208;-87
2021/03/06 02:14:14;;;;;;;12.48;6.05;;;-0.80;99.80;;;;;;6168385;23;20200;-87
2021/03/06 02:16:45;;;;;;;10.63;6.43;;;-0.90;99.80;;;;;;6210783;22;20583;-87
2021/03/06 02:19:38;;;;;;;8.02;5.40;;;-1.00;99.80;;;;;;6175681;23;20224;-87
2021/03/06 02:22:22;;;;;;;12.15;6.60;;;-1.10;99.80;;;;;;6204029;23;20607;-87
2021/03/06 02:24:59;;;;;;;11.95;6.13;;;-1.10;99.80;;;;;;6140462;23;20212;-87
2021/03/06 02:27:33;;;;;;;9.40;5.70;;;-1.10;99.80;;;;;;6183489;23;20204;-87
2021/03/06 02:30:03;;;;;;;12.13;5.43;;;-1.10;99.80;;;;;;6202865;23;20205;-87
2021/03/06 02:32:34;;;;;;;12.60;6.57;;;-1.00;99.80;;;;;;6214330;23;20535;-87
2021/03/06 02:35:08;;;;;;;12.85;6.85;;;-1.00;99.80;;;;;;6206707;23;20201;-87
2021/03/06 02:37:39;;;;;;;12.70;5.65;;;-0.90;99.80;;;;;;6202704;23;20217;-87
2021/03/06 02:40:09;;;;;;;13.95;5.60;;;-0.90;99.80;;;;;;6195404;23;20199;-87
2021/03/06 02:42:37;;;;;;;12.30;6.50;;;-0.90;99.80;;;;;;6186747;22;20264;-87
2021/03/06 02:45:07;;;;;;;10.27;6.65;;;-0.90;99.80;;;;;;6174860;23;20208;-87
2021/03/06 02:47:35;;;;;;;12.75;6.80;;;-0.80;99.80;;;;;;6205505;23;20229;-87
2021/03/06 02:50:06;;;;;;;11.98;5.93;;;-0.80;99.80;;;;;;6186971;23;20225;-87
2021/03/06 02:52:33;;;;;;;9.85;5.78;;;-0.80;99.80;;;;;;6169659;23;20806;-87
2021/03/06 02:55:00;;;;;;;8.55;6.18;;;-0.80;99.80;;;;;;6171231;23;20715;-87
2021/03/06 02:57:43;;;;;;;11.90;7.15;;;-0.80;99.80;;;;;;6179621;22;20322;-87
2021/03/06 03:00:23;;;;;;;10.77;6.88;;;-0.70;99.80;;;;;;6193132;23;20298;-87
2021/03/06 03:03:01;;;;;;;11.90;6.75;;;-0.70;99.80;;;;;;6213762;23;20269;-87
2021/03/06 03:05:33;;;;;;;10.48;7.10;;;-0.70;99.80;;;;;;6212604;23;20491;-87
2021/03/06 03:08:05;;;;;;;15.32;6.75;;;-0.70;99.80;;;;;;6211313;23;20247;-87
2021/03/06 03:10:35;;;;;;;12.20;6.05;;;-0.60;99.80;;;;;;6211365;23;20170;-87
2021/03/06 03:13:17;;;;;;;11.63;6.65;;;-0.60;99.80;;;;;;6211254;23;20186;-87
2021/03/06 03:15:50;;;;;;;8.27;6.10;;;-0.70;99.80;;;;;;6175455;23;20227;-87
2021/03/06 03:18:21;;;;;;;9.95;6.13;;;-0.70;99.80;;;;;;6202592;23;20219;-87
2021/03/06 03:20:52;;;;;;;11.40;6.75;;;-0.70;99.80;;;;;;6200666;23;20738;-86
2021/03/06 03:23:23;;;;;;;6.72;5.65;;;-0.80;99.80;;;;;;6197432;23;20563;-87
2021/03/06 03:26:04;;;;;;;8.70;6.20;;;-0.80;99.80;;;;;;6181525;23;20267;-87
2021/03/06 03:28:34;;;;;;;10.45;5.80;;;-0.90;99.80;;;;;;6197003;23;20272;-87
2021/03/06 03:31:03;;;;;;;9.98;6.10;;;-0.80;99.80;;;;;;6204052;23;20277;-87
2021/03/06 03:33:32;;;;;;;11.73;7.47;;;-0.80;99.80;;;;;;6203965;23;20205;-87
2021/03/06 03:36:01;;;;;;;11.30;6.75;;;-0.80;99.80;;;;;;6204923;23;20628;-87
2021/03/06 03:38:29;;;;;;;11.90;6.43;;;-0.80;99.80;;;;;;6190462;23;20199;-87
2021/03/06 03:40:59;;;;;;;7.78;5.35;;;-0.80;99.80;;;;;;6190764;23;20208;-87
2021/03/06 03:43:26;;;;;;;15.77;7.72;;;-0.70;99.80;;;;;;6196567;23;20235;-87
2021/03/06 03:45:54;;;;;;;13.40;7.15;;;-0.70;99.80;;;;;;6200492;23;20230;-87
2021/03/06 03:48:23;;;;;;;13.25;6.75;;;-0.70;99.80;;;;;;6181668;23;20264;-87
2021/03/06 03:50:50;;;;;;;12.60;7.75;;;-0.70;99.80;;;;;;6197485;23;20198;-87
2021/03/06 03:53:19;;;;;;;12.68;6.72;;;-0.70;99.80;;;;;;6197573;23;20205;-86
2021/03/06 03:55:46;;;;;;;11.52;6.07;;;-0.70;99.80;;;;;;6192652;23;20212;-87
2021/03/06 03:58:13;;;;;;;10.20;6.18;;;-0.70;99.80;;;;;;6192467;23;20259;-87
2021/03/06 04:00:40;;;;;;;12.25;6.30;;;-0.70;99.80;;;;;;6188139;23;20284;-87
2021/03/06 04:03:09;;;;;;;9.55;6.15;;;-0.70;99.80;;;;;;6201833;23;20907;-87
2021/03/06 04:05:37;;;;;;;14.32;6.90;;;-0.70;99.80;;;;;;6205111;23;20229;-87
2021/03/06 04:08:05;;;;;;;10.98;6.53;;;-0.70;99.80;;;;;;6193133;23;20280;-87
2021/03/06 04:10:32;;;;;;;9.27;6.53;;;-0.80;99.80;;;;;;6198353;23;20197;-87
2021/03/06 04:12:59;;;;;;;7.00;5.60;;;-0.80;99.80;;;;;;6166545;23;20526;-87
2021/03/06 04:15:26;;;;;;;10.48;6.35;;;-0.80;99.80;;;;;;6171166;23;20993;-87
2021/03/06 04:17:53;;;;;;;9.45;6.03;;;-0.90;99.80;;;;;;6204509;23;20204;-87
2021/03/06 04:20:22;;;;;;;10.73;6.35;;;-0.90;99.80;;;;;;6184463;23;20630;-86
2021/03/06 04:22:50;;;;;;;11.32;6.25;;;-1.00;99.80;;;;;;6143144;23;20215;-87
2021/03/06 04:25:17;;;;;;;10.23;6.60;;;-1.10;99.80;;;;;;6163669;23;20229;-87
2021/03/06 04:27:44;;;;;;;10.88;5.72;;;-1.20;99.80;;;;;;6145046;23;20213;-86
2021/03/06 04:30:12;;;;;;;10.50;6.32;;;-1.30;99.80;;;;;;6159958;23;20201;-86
2021/03/06 04:32:40;;;;;;;12.00;6.75;;;-1.30;99.80;;;;;;6206174;23;20201;-87
2021/03/06 04:35:09;;;;;;;13.38;5.88;;;-1.30;99.80;;;;;;6206188;23;20202;-87
2021/03/06 04:37:36;;;;;;;11.48;5.60;;;-1.30;99.80;;;;;;6203572;23;20197;-87
2021/03/06 04:40:07;;;;;;;6.88;5.82;;;-1.20;99.80;;;;;;6200201;23;20201;-86
2021/03/06 04:42:34;;;;;;;10.15;6.72;;;-1.10;99.80;;;;;;6157082;23;20205;-87
2021/03/06 04:45:03;;;;;;;10.20;6.05;;;-1.10;99.80;;;;;;6154233;23;20257;-86
2021/03/06 04:47:30;;;;;;;8.65;5.50;;;-1.10;99.80;;;;;;6205750;23;20850;-86
2021/03/06 04:49:57;;;;;;;9.05;6.25;;;-1.10;99.80;;;;;;6207594;23;20197;-86
2021/03/06 04:52:24;;;;;;;9.88;6.03;;;-1.10;99.80;;;;;;6163239;23;20677;-87
2021/03/06 04:54:51;;;;;;;7.63;6.03;;;-1.10;99.80;;;;;;6147534;23;20276;-87
2021/03/06 04:57:19;;;;;;;14.70;6.57;;;-1.10;99.80;;;;;;6168995;23;20291;-87
2021/03/06 04:59:48;;;;;;;7.57;5.43;;;-1.20;99.80;;;;;;6144898;23;20213;-87
2021/03/06 05:02:15;;;;;;;13.73;7.55;;;-1.20;99.80;;;;;;6149299;23;20208;-87
2021/03/06 05:04:42;;;;;;;10.50;6.05;;;-1.20;99.80;;;;;;6149163;23;20205;-86
2021/03/06 05:07:09;;;;;;;10.05;5.65;;;-1.20;99.80;;;;;;6152913;23;20212;-87
2021/03/06 05:09:36;;;;;;;9.55;5.97;;;-1.30;99.80;;;;;;6148119;23;20701;-87
2021/03/06 05:12:04;;;;;;;12.73;6.50;;;-1.40;99.80;;;;;;6160978;23;20284;-87
2021/03/06 05:14:32;;;;;;;7.43;5.30;;;-1.40;99.80;;;;;;6177472;23;20214;-86
2021/03/06 05:16:59;;;;;;;6.80;5.15;;;-1.40;99.80;;;;;;6204253;23;20209;-87
2021/03/06 05:19:26;;;;;;;10.43;6.13;;;-1.30;99.80;;;;;;6206877;23;20251;-86
2021/03/06 05:21:53;;;;;;;9.60;5.35;;;-1.30;99.80;;;;;;6202772;23;20853;-86
2021/03/06 05:24:20;;;;;;;10.85;6.35;;;-1.20;99.80;;;;;;6172447;23;20240;-87
2021/03/06 05:26:49;;;;;;;10.85;5.57;;;-1.30;99.80;;;;;;6162776;23;20934;-86
2021/03/06 05:29:15;;;;;;;8.68;5.70;;;-1.20;99.80;;;;;;6160128;23;20670;-86
2021/03/06 05:31:43;;;;;;;8.40;6.10;;;-1.20;99.80;;;;;;6190642;23;21076;-87
2021/03/06 05:34:11;;;;;;;10.23;5.22;;;-1.20;99.80;;;;;;6164944;23;20203;-89
2021/03/06 05:36:38;;;;;;;10.50;5.97;;;-1.20;99.80;;;;;;6163496;23;20236;-88
2021/03/06 05:39:05;;;;;;;11.38;6.10;;;-1.20;99.80;;;;;;6142970;23;20219;-88
2021/03/06 05:41:32;;;;;;;14.45;5.82;;;-1.10;99.80;;;;;;6158706;23;20224;-89
2021/03/06 05:44:00;;;;;;;11.73;5.25;;;-1.10;99.80;;;;;;6166930;23;20212;-89
2021/03/06 05:46:27;;;;;;;11.63;6.32;;;-1.10;99.80;;;;;;6197465;23;20208;-89
2021/03/06 05:48:55;;;;;;;11.40;5.80;;;-1.00;99.80;;;;;;6207019;23;20205;-89
2021/03/06 05:51:24;;;;;;;11.50;6.18;;;-1.00;99.80;;;;;;6210596;23;20197;-88
2021/03/06 05:53:53;;;;;;;11.50;6.68;;;-1.10;99.80;;;;;;6202472;23;20235;-89
2021/03/06 05:56:21;;;;;;;13.60;7.90;;;-1.10;99.80;;;;;;6180150;23;20209;-89
2021/03/06 05:58:48;;;;;;;12.88;7.80;;;-1.10;99.80;;;;;;6159753;23;20244;-88
2021/03/06 06:01:21;;;;;;;11.52;6.00;;;-1.20;99.80;;;;;;6147482;23;20379;-89
2021/03/06 06:03:49;;;;;;;10.93;5.95;;;-1.20;99.80;;;;;;6189175;23;20220;-89
2021/03/06 06:06:19;;;;;;;9.55;6.20;;;-1.20;99.80;;;;;;6180669;23;20212;-89
2021/03/06 06:08:46;;;;;;;14.32;8.35;;;-1.30;99.80;;;;;;6162131;23;20207;-88
2021/03/06 06:11:13;;;;;;;15.25;7.38;;;-1.30;99.80;;;;;;6156219;23;20606;-89
2021/03/06 06:13:40;;;;;;;17.85;7.20;;;-1.30;99.80;;;;;;6144756;23;20201;-89
2021/03/06 06:16:07;;;;;;;9.30;6.28;;;-1.20;99.80;;;;;;6200297;23;20275;-88
2021/03/06 06:18:35;;;;;;;10.73;6.95;;;-1.20;99.80;;;;;;6206426;23;20205;-88
2021/03/06 06:21:03;;;;;;;13.77;6.57;;;-1.20;99.80;;;;;;6207817;23;20200;-88
2021/03/06 06:23:31;;;;;;;7.90;6.25;;;-1.20;99.80;;;;;;6208227;23;20198;-89
2021/03/06 06:25:58;;;;;;;12.07;7.07;;;-1.10;99.80;;;;;;6184547;23;20229;-88
2021/03/06 06:28:26;;;;;;;10.20;7.20;;;-1.20;99.80;;;;;;6145171;23;20573;-89
2021/03/06 06:31:09;;;;;;;8.57;6.32;;;-1.20;99.80;;;;;;6167542;23;20207;-89
2021/03/06 06:33:37;;;;;;;11.68;7.93;;;-1.10;99.80;;;;;;6206354;23;20196;-88
2021/03/06 06:36:05;;;;;;;10.75;6.20;;;-1.00;99.80;;;;;;6173782;23;20213;-89
2021/03/06 06:38:42;;;;;;;14.15;7.53;;;-1.00;99.80;;;;;;6165184;23;20249;-89
2021/03/06 06:41:09;;;;;;;14.05;8.23;;;-1.00;99.80;;;;;;6160071;23;20617;-88
2021/03/06 06:43:36;;;;;;;11.18;7.70;;;-1.00;99.80;;;;;;6147167;23;20253;-88
2021/03/06 06:46:04;;;;;;;18.35;8.38;;;-0.90;99.80;;;;;;6176778;23;20235;-89
2021/03/06 06:48:31;;;;;;;15.98;7.70;;;-0.80;99.80;;;;;;6163407;23;20236;-89
2021/03/06 06:51:09;;;;;;;20.40;7.88;;;-0.80;99.80;;;;;;6166564;23;20193;-89
2021/03/06 06:53:36;;;;;;;13.77;8.73;;;-0.80;99.80;;;;;;6154024;23;20196;-89
2021/03/06 06:56:22;;;;;;;15.65;7.85;;;-0.80;99.80;;;;;;6171729;23;20205;-89
2021/03/06 06:58:49;;;;;;;9.68;7.00;;;-0.80;99.80;;;;;;6172637;23;20730;-89
2021/03/06 07:01:35;;;;;;;12.57;7.22;;;-0.80;99.80;;;;;;6187050;23;20204;-90
2021/03/06 07:04:06;;;;;;;13.50;8.00;;;-0.80;99.80;;;;;;6206011;23;20201;-90
2021/03/06 07:06:34;;;;;;;15.07;7.82;;;-0.80;99.80;;;;;;6193935;23;20201;-91
2021/03/06 07:09:10;;;;;;;13.75;7.95;;;-0.70;99.80;;;;;;6141023;23;20209;-88
2021/03/06 07:11:39;;;;;;;16.60;7.55;;;-0.70;99.80;;;;;;6141130;23;20201;-88
2021/03/06 07:14:07;;;;;;;10.48;7.80;;;-0.70;99.80;;;;;;6132439;23;20271;-88
2021/03/06 07:16:56;;;;;;;11.68;6.97;;;-0.70;99.80;;;;;;6178886;23;20212;-88
2021/03/06 07:19:26;;;;;;;9.45;6.88;;;-0.70;99.80;;;;;;6136282;23;20201;-88
2021/03/06 07:21:53;;;;;;;11.15;6.25;;;-0.60;99.80;;;;;;6152766;23;20206;-89
2021/03/06 07:24:20;;;;;;;11.23;7.13;;;-0.50;99.80;;;;;;6152667;23;20243;-88
2021/03/06 07:26:51;;;;;;;13.60;7.68;;;-0.50;99.80;;;;;;6132203;23;20253;-88
2021/03/06 07:29:20;;;;;;;10.07;6.70;;;-0.40;99.80;;;;;;6143350;23;21051;-89
2021/03/06 07:31:50;;;;;;;9.85;7.20;;;-0.40;99.80;;;;;;6204012;23;20221;-88
2021/03/06 07:34:20;;;;;;;10.00;7.70;;;-0.40;99.80;;;;;;6208875;23;20193;-90
2021/03/06 07:36:48;;;;;;;11.05;6.18;;;-0.30;99.80;;;;;;6206475;23;20290;-89
2021/03/06 07:39:18;;;;;;;11.77;7.78;;;-0.30;99.80;;;;;;6163370;23;20212;-88
2021/03/06 07:41:55;;;;;;;8.88;6.93;;;-0.20;99.80;;;;;;6149674;23;20722;-90
2021/03/06 07:44:25;;;;;;;10.98;6.65;;;-0.20;99.80;;;;;;6167931;23;20235;-88
2021/03/06 07:46:55;;;;;;;10.30;6.07;;;-0.20;99.80;;;;;;6194528;23;20231;-88
2021/03/06 07:49:28;;;;;;;11.85;7.85;;;-0.20;99.80;;;;;;6180425;23;20567;-89
2021/03/06 07:51:57;;;;;;;11.38;7.22;;;-0.10;99.80;;;;;;6136456;23;20212;-88
2021/03/06 07:54:25;;;;;;;12.27;8.75;;;-0.20;99.80;;;;;;6145555;23;20295;-89
2021/03/06 07:56:54;;;;;;;10.95;7.72;;;-0.20;99.80;;;;;;6156117;23;20235;-89
2021/03/06 07:59:50;;;;;;;13.48;7.55;;;-0.20;99.80;;;;;;6162868;23;20201;-88
2021/03/06 08:02:35;;;;;;;9.45;7.63;;;-0.20;99.80;;;;;;6211995;22;20281;-89
2021/03/06 08:05:29;;;;;;;17.75;8.43;;;-0.10;99.80;;;;;;6206970;23;20201;-89
2021/03/06 08:07:59;;;;;;;12.55;6.53;;;-0.10;99.80;;;;;;6176194;23;20573;-89
2021/03/06 08:10:26;;;;;;;10.45;7.32;;;0.00;99.80;;;;;;6181049;23;20211;-89
2021/03/06 08:12:54;;;;;;;11.57;7.05;;;0.10;99.80;;;;;;6172909;22;20224;-89
2021/03/06 08:15:29;;;;;;;9.73;6.32;;;0.10;99.80;;;;;;6199554;22;20202;-88
2021/03/06 08:17:57;;;;;;;9.25;6.50;;;0.10;99.80;;;;;;6218123;22;20705;-88
2021/03/06 08:20:28;;;;;;;10.30;7.35;;;0.20;99.80;;;;;;6194642;23;20204;-89
2021/03/06 08:23:20;;;;;;;10.98;7.18;;;0.20;99.80;;;;;;6162530;23;20205;-89
2021/03/06 08:26:05;;;;;;;11.98;7.05;;;0.30;99.80;;;;;;6186298;23;20197;-89
2021/03/06 08:28:33;;;;;;;10.18;7.05;;;0.30;99.80;;;;;;6179743;23;20868;-89
2021/03/06 08:31:39;;;;;;;11.27;7.30;;;0.40;99.80;;;;;;6187532;23;20202;-89
2021/03/06 08:34:31;;;;;;;10.20;7.35;;;0.50;99.80;;;;;;6174227;23;20326;-89
2021/03/06 08:37:34;;;;;;;12.27;7.03;;;0.70;99.80;;;;;;6126906;23;20235;-89
2021/03/06 08:40:13;;;;;;;10.18;6.57;;;0.90;99.80;;;;;;6110114;23;20201;-89
2021/03/06 08:42:42;;;;;;;10.20;7.13;;;1.10;99.80;;;;;;6180656;23;20709;-89
2021/03/06 08:45:13;;;;;;;11.68;7.35;;;1.20;99.80;;;;;;6214884;23;20283;-88
2021/03/06 08:47:42;;;;;;;10.23;7.32;;;1.30;99.80;;;;;;6206590;23;20286;-88
2021/03/06 08:50:12;;;;;;;9.32;6.55;;;1.50;99.80;;;;;;6205037;23;20627;-89
2021/03/06 08:52:40;;;;;;;9.90;6.57;;;1.60;99.80;;;;;;6186446;23;20204;-90
2021/03/06 08:55:09;;;;;;;11.70;6.85;;;1.80;99.80;;;;;;6185053;23;20215;-88
2021/03/06 08:57:37;;;;;;;10.93;6.72;;;1.90;99.80;;;;;;6178449;23;20289;-88
2021/03/06 09:00:20;;;;;;;10.15;6.90;;;2.00;99.80;;;;;;6175085;23;20200;-87
2021/03/06 09:02:49;;;;;;;11.27;7.30;;;2.00;99.80;;;;;;6182101;23;20218;-88
2021/03/06 09:05:20;;;;;;;13.13;7.68;;;2.00;99.80;;;;;;6162999;22;20212;-88
2021/03/06 09:07:50;;;;;;;9.25;6.60;;;2.10;99.80;;;;;;6175936;23;20666;-89
2021/03/06 09:10:44;;;;;;;10.23;6.28;;;2.30;99.80;;;;;;6132982;23;20208;-87
2021/03/06 09:13:15;;;;;;;11.25;7.15;;;2.40;99.80;;;;;;6094195;23;20213;-86
2021/03/06 09:15:46;;;;;;;15.70;6.80;;;2.40;99.80;;;;;;6198309;23;20672;-86
2021/03/06 09:18:16;;;;;;;11.68;7.78;;;2.50;99.80;;;;;;6206410;23;20214;-86
2021/03/06 09:20:48;;;;;;;8.75;6.95;;;2.60;99.80;;;;;;6207167;23;20207;-88
2021/03/06 09:23:32;;;;;;;14.68;7.65;;;2.80;99.80;;;;;;6193172;23;20209;-88
2021/03/06 09:26:04;;;;;;;29.90;8.00;;;3.10;99.80;;;;;;6163728;23;20204;-88
2021/03/06 09:28:33;;;;;;;7.95;6.00;;;3.10;99.80;;;;;;6160629;23;20230;-88
2021/03/06 09:31:02;;;;;;;12.45;6.75;;;3.30;99.80;;;;;;6186618;22;20741;-88
2021/03/06 09:33:32;;;;;;;11.07;6.60;;;3.50;99.70;;;;;;6197796;23;20219;-89
2021/03/06 09:36:10;;;;;;;11.52;7.07;;;3.60;98.90;;;;;;6193921;23;20258;-88
2021/03/06 09:38:48;;;;;;;14.82;7.72;;;3.60;97.40;;;;;;6155868;23;20206;-88
2021/03/06 09:41:19;;;;;;;10.60;6.35;;;3.70;97.40;;;;;;6180670;23;20236;-89
2021/03/06 09:43:50;;;;;;;7.78;6.07;;;3.90;96.50;;;;;;6176704;23;20254;-90
2021/03/06 09:46:22;;;;;;;18.48;6.30;;;4.10;94.30;;;;;;6217425;22;20204;-90
2021/03/06 09:48:51;;;;;;;27.00;12.18;;;4.20;93.90;;;;;;6207946;23;21010;-88
2021/03/06 09:51:19;;;;;;;38.15;12.95;;;4.30;94.30;;;;;;6207236;23;20203;-88
2021/03/06 09:53:55;;;;;;;9.93;5.78;;;4.50;93.90;;;;;;6193713;23;20288;-88
2021/03/06 09:56:23;;;;;;;23.05;12.13;;;4.60;92.30;;;;;;6182263;23;20643;-88
2021/03/06 09:58:59;;;;;;;26.05;14.80;;;4.70;92.20;;;;;;6163875;23;20294;-89
2021/03/06 10:01:28;;;;;;;25.77;14.10;;;4.90;87.70;;;;;;6202604;23;20252;-88
2021/03/06 10:03:56;;;;;;;14.00;8.95;;;5.10;87.10;;;;;;6206861;23;20201;-88
2021/03/06 10:06:25;;;;;;;23.40;10.40;;;5.20;85.80;;;;;;6175680;23;20204;-89
2021/03/06 10:08:54;;;;;;;29.85;21.70;;;5.40;86.10;;;;;;6157375;23;20200;-88
2021/03/06 10:11:28;;;;;;;26.27;23.57;;;5.50;84.50;;;;;;6180174;23;20283;-88
2021/03/06 10:13:55;;;;;;;19.40;8.00;;;5.70;84.00;;;;;;6177299;23;20459;-88
2021/03/06 10:16:23;;;;;;;14.90;7.40;;;5.80;84.20;;;;;;6166081;22;20818;-88
2021/03/06 10:18:51;;;;;;;10.43;9.37;;;5.90;84.90;;;;;;6165001;23;20473;-88
2021/03/06 10:21:21;;;;;;;7.90;5.20;;;6.10;81.80;;;;;;6179261;23;20483;-87
2021/03/06 10:23:49;;;;;;;9.65;6.93;;;6.20;79.80;;;;;;6130936;23;20478;-88
2021/03/06 10:26:24;;;;;;;19.07;7.50;;;6.40;78.40;;;;;;6168723;23;20219;-87
2021/03/06 10:28:54;;;;;;;7.80;5.30;;;6.50;78.00;;;;;;6161385;22;20435;-88
2021/03/06 10:31:39;;;;;;;11.30;5.60;;;6.60;78.00;;;;;;6207418;23;20478;-88
2021/03/06 10:34:19;;;;;;;33.00;8.57;;;6.70;77.70;;;;;;6207696;23;20953;-88
2021/03/06 10:37:09;;;;;;;28.37;11.70;;;6.80;79.00;;;;;;6194287;23;21066;-88
2021/03/06 10:39:54;;;;;;;10.03;6.20;;;6.90;77.00;;;;;;6180640;23;20519;-90
2021/03/06 10:42:22;;;;;;;7.17;4.63;;;6.90;75.60;;;;;;6192467;23;20516;-87
2021/03/06 10:44:49;;;;;;;25.47;10.17;;;7.10;74.10;;;;;;6188484;22;20474;-87
2021/03/06 10:47:17;;;;;;;11.63;6.63;;;7.20;73.30;;;;;;6203253;22;20490;-87
2021/03/06 10:49:46;;;;;;;13.10;7.17;;;7.30;74.00;;;;;;6167703;22;20442;-87
2021/03/06 10:52:25;;;;;;;10.13;6.00;;;7.50;73.70;;;;;;6162187;23;20439;-88
2021/03/06 10:54:54;;;;;;;16.30;7.10;;;7.70;73.60;;;;;;6179301;22;20796;-88
2021/03/06 10:57:22;;;;;;;13.70;6.93;;;7.80;74.20;;;;;;6158614;23;20447;-88
2021/03/06 10:59:49;;;;;;;13.17;7.27;;;8.00;73.30;;;;;;6172846;23;21025;-88
2021/03/06 11:02:28;;;;;;;8.40;5.60;;;8.10;73.30;;;;;;6218832;22;20601;-88
2021/03/06 11:05:18;;;;;;;14.40;8.33;;;8.40;73.50;;;;;;6206063;23;20429;-88
2021/03/06 11:07:46;;;;;;;10.77;6.33;;;8.60;71.50;;;;;;6201948;22;20838;-88
2021/03/06 11:10:15;;;;;;;15.17;7.60;;;8.70;71.10;;;;;;6176224;22;20516;-88
2021/03/06 11:12:51;;;;;;;8.40;5.93;;;8.70;71.70;;;;;;6182616;22;20471;-87
2021/03/06 11:15:20;;;;;;;10.50;5.73;;;8.70;71.80;;;;;;6196387;23;20493;-87
2021/03/06 11:17:51;;;;;;;8.80;5.60;;;8.90;70.90;;;;;;6203595;22;20983;-86
2021/03/06 11:20:19;;;;;;;7.87;5.13;;;9.10;72.00;;;;;;6193560;23;20439;-86
2021/03/06 11:22:47;;;;;;;10.70;5.10;;;9.20;71.20;;;;;;6181630;23;20440;-86
2021/03/06 11:25:16;;;;;;;8.37;5.03;;;9.40;67.50;;;;;;6142436;23;20446;-88
2021/03/06 11:27:48;;;;;;;17.57;5.90;;;9.40;67.50;;;;;;6163584;23;20445;-84
2021/03/06 11:30:18;;;;;;;6.70;4.93;;;9.70;69.70;;;;;;6186025;23;20441;-87
2021/03/06 11:32:48;;;;;;;8.20;4.80;;;10.00;68.50;;;;;;6203397;23;20516;-87
2021/03/06 11:35:17;;;;;;;8.13;5.53;;;10.30;65.60;;;;;;6205209;23;20427;-87
2021/03/06 11:37:46;;;;;;;6.50;4.50;;;14.60;61.60;;;;;;6204244;23;20524;-87
2021/03/06 11:40:17;;;;;;;5.33;4.30;;;14.60;61.60;;;;;;6185980;23;20498;-87
2021/03/06 11:42:44;;;;;;;5.13;4.20;;;20.10;47.10;;;;;;6170893;23;20484;-87
2021/03/06 11:45:13;;;;;;;7.00;4.87;;;21.70;45.40;;;;;;6142335;23;20462;-87
2021/03/06 11:47:40;;;;;;;5.77;4.87;;;22.70;42.60;;;;;;6207542;23;20444;-88
2021/03/06 11:50:10;;;;;;;7.00;4.97;;;23.60;40.90;;;;;;6196803;23;20539;-88
2021/03/06 11:52:38;;;;;;;7.00;4.90;;;23.90;40.60;;;;;;6190768;23;20445;-88
2021/03/06 11:55:08;;;;;;;5.00;4.50;;;23.70;41.00;;;;;;6170762;22;20482;-88
2021/03/06 11:57:36;;;;;;;5.97;4.63;;;23.80;40.10;;;;;;6171992;23;20529;-87
2021/03/06 12:00:05;;;;;;;7.27;4.60;;;24.30;39.80;;;;;;6180024;23;20758;-87
2021/03/06 12:02:32;;;;;;;5.30;4.40;;;23.70;40.30;;;;;;6204334;22;20424;-88
2021/03/06 12:05:00;;;;;;;8.83;5.70;;;;;;;;;;6201142;23;20527;-88
2021/03/06 12:07:27;;;;;;;4.93;4.07;;;24.10;38.30;;;;;;6206938;23;20432;-89
2021/03/06 12:09:54;;;;;;;4.67;4.03;;;23.80;39.00;;;;;;6205812;23;20488;-89
2021/03/06 12:12:22;;;;;;;6.00;4.97;;;23.70;39.10;;;;;;6206135;23;20458;-88
2021/03/06 12:14:49;;;;;;;9.50;6.47;;;;;;;;;;6208202;23;20470;-89
2021/03/06 12:17:16;;;;;;;5.43;4.80;;;25.00;37.30;;;;;;6211223;23;20452;-89
2021/03/06 12:19:44;;;;;;;4.93;3.83;;;25.80;36.60;;;;;;6205949;23;20776;-89
2021/03/06 12:22:11;;;;;;;4.97;4.47;;;;;;;;;;6201469;23;20445;-89
2021/03/06 12:24:38;;;;;;;4.83;4.10;;;26.10;34.70;;;;;;6178899;23;20518;-89
2021/03/06 12:27:06;;;;;;;4.13;3.73;;;26.30;34.10;;;;;;6170780;22;20479;-89
2021/03/06 12:29:34;;;;;;;6.10;5.00;;;26.80;33.10;;;;;;6164021;23;20454;-89
2021/03/06 12:32:01;;;;;;;4.00;3.57;;;27.00;33.40;;;;;;6185787;23;20497;-90
2021/03/06 12:34:29;;;;;;;5.90;4.70;;;;;;;;;;6161954;23;20439;-89
2021/03/06 12:36:59;;;;;;;6.00;3.93;;;28.00;33.10;;;;;;6164059;23;20470;-89
2021/03/06 12:39:26;;;;;;;10.67;3.87;;;27.90;32.00;;;;;;6192068;22;20459;-89
2021/03/06 12:41:53;;;;;;;6.30;4.60;;;;;;;;;;6162624;22;20482;-89
2021/03/06 12:44:40;;;;;;;4.27;3.60;;;28.20;31.70;;;;;;6178209;22;20439;-89
2021/03/06 12:47:07;;;;;;;9.13;3.70;;;;;;;;;;6202808;23;20523;-89
2021/03/06 12:49:37;;;;;;;8.10;5.03;;;28.00;31.80;;;;;;6207688;23;20493;-89
2021/03/06 12:52:06;;;;;;;4.93;4.43;;;27.50;32.00;;;;;;6202919;23;20430;-89
2021/03/06 12:54:33;;;;;;;4.10;3.70;;;;;;;;;;6179644;23;21278;-90
2021/03/06 12:57:00;;;;;;;6.23;4.13;;;;;;;;;;6174249;23;20447;-90
2021/03/06 12:59:28;;;;;;;5.30;4.80;;;;;;;;;;6182520;22;20451;-89
2021/03/06 13:01:56;;;;;;;4.30;3.87;;;27.50;31.30;;;;;;6222876;22;20441;-89